sensor_id;sensor_type;location;lat;lon;timestamp;P1;durP1;ratioP1;P2;durP2;ratioP2
59998;SDS011;45859;51.378;6.736;2023-09-30T00:00:41;24.57;;;11.27;;
59998;SDS011;45859;51.378;6.736;2023-09-30T00:03:07;20.50;;;10.67;;
59998;SDS011;45859;51.378;6.736;2023-09-30T00:05:36;20.57;;;9.90;;
59998;SDS011;45859;51.378;6.736;2023-09-30T00:08:02;22.13;;;10.90;;
59998;SDS011;45859;51.378;6.736;2023-09-30T00:10:28;19.97;;;9.73;;
59998;SDS011;45859;51.378;6.736;2023-09-30T00:12:55;9.97;;;4.40;;
59998;SDS011;45859;51.378;6.736;2023-09-30T00:15:21;19.80;;;10.03;;
59998;SDS011;45859;51.378;6.736;2023-09-30T00:17:47;21.70;;;11.10;;
59998;SDS011;45859;51.378;6.736;2023-09-30T00:20:13;23.97;;;10.73;;
59998;SDS011;45859;51.378;6.736;2023-09-30T00:22:40;9.53;;;3.23;;
59998;SDS011;45859;51.378;6.736;2023-09-30T00:25:06;20.73;;;9.83;;
59998;SDS011;45859;51.378;6.736;2023-09-30T00:27:32;21.50;;;9.13;;
59998;SDS011;45859;51.378;6.736;2023-09-30T00:29:58;19.43;;;8.70;;
59998;SDS011;45859;51.378;6.736;2023-09-30T00:32:24;19.33;;;9.27;;
59998;SDS011;45859;51.378;6.736;2023-09-30T00:34:50;19.40;;;9.30;;
59998;SDS011;45859;51.378;6.736;2023-09-30T00:37:17;9.53;;;3.47;;
59998;SDS011;45859;51.378;6.736;2023-09-30T00:39:43;20.03;;;9.60;;
59998;SDS011;45859;51.378;6.736;2023-09-30T00:42:09;25.23;;;10.33;;
59998;SDS011;45859;51.378;6.736;2023-09-30T00:44:35;11.00;;;4.30;;
59998;SDS011;45859;51.378;6.736;2023-09-30T00:47:02;13.33;;;4.90;;
59998;SDS011;45859;51.378;6.736;2023-09-30T00:49:28;10.60;;;4.50;;
59998;SDS011;45859;51.378;6.736;2023-09-30T00:51:54;23.03;;;9.90;;
59998;SDS011;45859;51.378;6.736;2023-09-30T00:54:21;23.27;;;11.60;;
59998;SDS011;45859;51.378;6.736;2023-09-30T00:56:48;20.53;;;11.63;;
59998;SDS011;45859;51.378;6.736;2023-09-30T00:59:14;21.53;;;11.07;;
59998;SDS011;45859;51.378;6.736;2023-09-30T01:01:44;21.80;;;10.40;;
59998;SDS011;45859;51.378;6.736;2023-09-30T01:04:14;19.03;;;4.80;;
59998;SDS011;45859;51.378;6.736;2023-09-30T01:06:40;9.10;;;3.20;;
59998;SDS011;45859;51.378;6.736;2023-09-30T01:09:07;21.50;;;10.47;;
59998;SDS011;45859;51.378;6.736;2023-09-30T01:11:34;21.93;;;10.63;;
59998;SDS011;45859;51.378;6.736;2023-09-30T01:14:00;21.63;;;10.83;;
59998;SDS011;45859;51.378;6.736;2023-09-30T01:16:26;20.53;;;10.40;;
59998;SDS011;45859;51.378;6.736;2023-09-30T01:18:52;20.40;;;10.43;;
59998;SDS011;45859;51.378;6.736;2023-09-30T01:21:18;7.40;;;3.87;;
59998;SDS011;45859;51.378;6.736;2023-09-30T01:23:44;12.77;;;4.10;;
59998;SDS011;45859;51.378;6.736;2023-09-30T01:26:11;21.20;;;10.40;;
59998;SDS011;45859;51.378;6.736;2023-09-30T01:28:38;23.40;;;11.60;;
59998;SDS011;45859;51.378;6.736;2023-09-30T01:31:05;19.17;;;10.93;;
59998;SDS011;45859;51.378;6.736;2023-09-30T01:33:31;24.60;;;11.47;;
59998;SDS011;45859;51.378;6.736;2023-09-30T01:35:58;20.93;;;12.83;;
59998;SDS011;45859;51.378;6.736;2023-09-30T01:38:24;22.43;;;11.77;;
59998;SDS011;45859;51.378;6.736;2023-09-30T01:40:50;30.40;;;14.03;;
59998;SDS011;45859;51.378;6.736;2023-09-30T01:43:16;27.80;;;14.20;;
59998;SDS011;45859;51.378;6.736;2023-09-30T01:45:43;35.63;;;14.93;;
59998;SDS011;45859;51.378;6.736;2023-09-30T01:48:12;15.33;;;4.90;;
59998;SDS011;45859;51.378;6.736;2023-09-30T01:50:39;12.53;;;5.47;;
59998;SDS011;45859;51.378;6.736;2023-09-30T01:53:05;21.97;;;11.00;;
59998;SDS011;45859;51.378;6.736;2023-09-30T01:55:32;24.80;;;11.33;;
59998;SDS011;45859;51.378;6.736;2023-09-30T01:57:58;21.93;;;10.37;;
59998;SDS011;45859;51.378;6.736;2023-09-30T02:00:24;23.90;;;10.87;;
59998;SDS011;45859;51.378;6.736;2023-09-30T02:02:50;19.20;;;10.07;;
59998;SDS011;45859;51.378;6.736;2023-09-30T02:05:16;20.30;;;10.00;;
59998;SDS011;45859;51.378;6.736;2023-09-30T02:07:42;20.07;;;10.27;;
59998;SDS011;45859;51.378;6.736;2023-09-30T02:10:08;23.33;;;9.97;;
59998;SDS011;45859;51.378;6.736;2023-09-30T02:12:35;20.30;;;10.23;;
59998;SDS011;45859;51.378;6.736;2023-09-30T02:15:03;21.20;;;10.73;;
59998;SDS011;45859;51.378;6.736;2023-09-30T02:17:29;21.53;;;11.03;;
59998;SDS011;45859;51.378;6.736;2023-09-30T02:19:55;21.03;;;10.87;;
59998;SDS011;45859;51.378;6.736;2023-09-30T02:22:21;24.07;;;10.90;;
59998;SDS011;45859;51.378;6.736;2023-09-30T02:24:48;12.57;;;4.13;;
59998;SDS011;45859;51.378;6.736;2023-09-30T02:27:14;16.57;;;2.90;;
59998;SDS011;45859;51.378;6.736;2023-09-30T02:29:40;22.33;;;11.17;;
59998;SDS011;45859;51.378;6.736;2023-09-30T02:32:06;23.67;;;11.57;;
59998;SDS011;45859;51.378;6.736;2023-09-30T02:34:32;21.97;;;10.47;;
59998;SDS011;45859;51.378;6.736;2023-09-30T02:36:58;12.20;;;4.03;;
59998;SDS011;45859;51.378;6.736;2023-09-30T02:39:25;22.53;;;11.80;;
59998;SDS011;45859;51.378;6.736;2023-09-30T02:41:51;11.50;;;4.30;;
59998;SDS011;45859;51.378;6.736;2023-09-30T02:44:17;13.20;;;4.60;;
59998;SDS011;45859;51.378;6.736;2023-09-30T02:46:43;20.43;;;10.90;;
59998;SDS011;45859;51.378;6.736;2023-09-30T02:49:09;24.80;;;11.43;;
59998;SDS011;45859;51.378;6.736;2023-09-30T02:51:35;28.70;;;11.27;;
59998;SDS011;45859;51.378;6.736;2023-09-30T02:54:02;22.77;;;11.10;;
59998;SDS011;45859;51.378;6.736;2023-09-30T02:56:28;9.70;;;3.87;;
59998;SDS011;45859;51.378;6.736;2023-09-30T02:58:55;9.83;;;3.77;;
59998;SDS011;45859;51.378;6.736;2023-09-30T03:01:21;11.27;;;3.77;;
59998;SDS011;45859;51.378;6.736;2023-09-30T03:03:47;9.67;;;3.73;;
59998;SDS011;45859;51.378;6.736;2023-09-30T03:06:13;21.17;;;10.97;;
59998;SDS011;45859;51.378;6.736;2023-09-30T03:08:40;21.57;;;11.07;;
59998;SDS011;45859;51.378;6.736;2023-09-30T03:11:06;16.03;;;3.60;;
59998;SDS011;45859;51.378;6.736;2023-09-30T03:13:32;20.00;;;10.47;;
59998;SDS011;45859;51.378;6.736;2023-09-30T03:15:58;9.90;;;2.97;;
59998;SDS011;45859;51.378;6.736;2023-09-30T03:18:26;13.73;;;3.73;;
59998;SDS011;45859;51.378;6.736;2023-09-30T03:20:58;15.30;;;3.73;;
59998;SDS011;45859;51.378;6.736;2023-09-30T03:23:25;12.17;;;3.17;;
59998;SDS011;45859;51.378;6.736;2023-09-30T03:25:58;20.75;;;9.20;;
59998;SDS011;45859;51.378;6.736;2023-09-30T03:28:25;9.77;;;3.00;;
59998;SDS011;45859;51.378;6.736;2023-09-30T03:30:51;6.97;;;3.07;;
59998;SDS011;45859;51.378;6.736;2023-09-30T03:33:17;19.83;;;9.07;;
59998;SDS011;45859;51.378;6.736;2023-09-30T03:35:43;19.07;;;9.43;;
59998;SDS011;45859;51.378;6.736;2023-09-30T03:38:10;18.10;;;9.00;;
59998;SDS011;45859;51.378;6.736;2023-09-30T03:40:38;19.30;;;9.50;;
59998;SDS011;45859;51.378;6.736;2023-09-30T03:43:04;7.00;;;3.17;;
59998;SDS011;45859;51.378;6.736;2023-09-30T03:45:33;14.10;;;3.33;;
59998;SDS011;45859;51.378;6.736;2023-09-30T03:48:00;13.10;;;4.03;;
59998;SDS011;45859;51.378;6.736;2023-09-30T03:50:27;7.30;;;3.07;;
59998;SDS011;45859;51.378;6.736;2023-09-30T03:53:00;20.77;;;9.23;;
59998;SDS011;45859;51.378;6.736;2023-09-30T03:55:27;15.40;;;3.80;;
59998;SDS011;45859;51.378;6.736;2023-09-30T03:57:54;11.33;;;3.27;;
59998;SDS011;45859;51.378;6.736;2023-09-30T04:00:20;12.40;;;3.70;;
59998;SDS011;45859;51.378;6.736;2023-09-30T04:02:47;18.87;;;9.53;;
59998;SDS011;45859;51.378;6.736;2023-09-30T04:05:19;10.90;;;3.70;;
59998;SDS011;45859;51.378;6.736;2023-09-30T04:07:49;10.95;;;3.58;;
59998;SDS011;45859;51.378;6.736;2023-09-30T04:10:15;7.73;;;3.17;;
59998;SDS011;45859;51.378;6.736;2023-09-30T04:12:42;22.07;;;10.33;;
59998;SDS011;45859;51.378;6.736;2023-09-30T04:15:09;11.97;;;3.87;;
59998;SDS011;45859;51.378;6.736;2023-09-30T04:17:37;24.03;;;10.20;;
59998;SDS011;45859;51.378;6.736;2023-09-30T04:20:04;20.63;;;9.40;;
59998;SDS011;45859;51.378;6.736;2023-09-30T04:22:33;13.95;;;2.72;;
59998;SDS011;45859;51.378;6.736;2023-09-30T04:25:00;15.33;;;3.70;;
59998;SDS011;45859;51.378;6.736;2023-09-30T04:27:26;7.97;;;3.17;;
59998;SDS011;45859;51.378;6.736;2023-09-30T04:29:52;12.10;;;3.67;;
59998;SDS011;45859;51.378;6.736;2023-09-30T04:32:18;7.80;;;2.90;;
59998;SDS011;45859;51.378;6.736;2023-09-30T04:34:44;6.63;;;3.13;;
59998;SDS011;45859;51.378;6.736;2023-09-30T04:37:11;6.43;;;3.27;;
59998;SDS011;45859;51.378;6.736;2023-09-30T04:39:38;22.23;;;11.50;;
59998;SDS011;45859;51.378;6.736;2023-09-30T04:42:04;21.47;;;11.50;;
59998;SDS011;45859;51.378;6.736;2023-09-30T04:44:30;24.83;;;11.03;;
59998;SDS011;45859;51.378;6.736;2023-09-30T04:46:57;7.73;;;3.73;;
59998;SDS011;45859;51.378;6.736;2023-09-30T04:49:23;26.00;;;10.87;;
59998;SDS011;45859;51.378;6.736;2023-09-30T04:51:49;9.97;;;3.60;;
59998;SDS011;45859;51.378;6.736;2023-09-30T04:54:15;9.57;;;3.37;;
59998;SDS011;45859;51.378;6.736;2023-09-30T04:56:41;12.40;;;3.57;;
59998;SDS011;45859;51.378;6.736;2023-09-30T04:59:07;9.30;;;3.23;;
59998;SDS011;45859;51.378;6.736;2023-09-30T05:01:33;13.80;;;4.23;;
59998;SDS011;45859;51.378;6.736;2023-09-30T05:03:59;16.17;;;4.23;;
59998;SDS011;45859;51.378;6.736;2023-09-30T05:06:25;7.93;;;3.00;;
59998;SDS011;45859;51.378;6.736;2023-09-30T05:08:51;11.93;;;4.40;;
59998;SDS011;45859;51.378;6.736;2023-09-30T05:11:17;26.27;;;11.10;;
59998;SDS011;45859;51.378;6.736;2023-09-30T05:13:43;6.90;;;2.87;;
59998;SDS011;45859;51.378;6.736;2023-09-30T05:16:10;14.93;;;4.17;;
59998;SDS011;45859;51.378;6.736;2023-09-30T05:18:38;24.43;;;11.73;;
59998;SDS011;45859;51.378;6.736;2023-09-30T05:21:04;23.73;;;11.57;;
59998;SDS011;45859;51.378;6.736;2023-09-30T05:23:31;11.40;;;3.93;;
59998;SDS011;45859;51.378;6.736;2023-09-30T05:25:57;13.80;;;3.63;;
59998;SDS011;45859;51.378;6.736;2023-09-30T05:28:24;12.70;;;4.37;;
59998;SDS011;45859;51.378;6.736;2023-09-30T05:30:50;10.23;;;3.47;;
59998;SDS011;45859;51.378;6.736;2023-09-30T05:33:15;23.03;;;12.27;;
59998;SDS011;45859;51.378;6.736;2023-09-30T05:35:41;25.70;;;13.20;;
59998;SDS011;45859;51.378;6.736;2023-09-30T05:38:07;7.13;;;2.70;;
59998;SDS011;45859;51.378;6.736;2023-09-30T05:40:33;8.70;;;3.60;;
59998;SDS011;45859;51.378;6.736;2023-09-30T05:42:59;23.17;;;11.47;;
59998;SDS011;45859;51.378;6.736;2023-09-30T05:45:26;20.97;;;11.53;;
59998;SDS011;45859;51.378;6.736;2023-09-30T05:47:52;21.47;;;12.53;;
59998;SDS011;45859;51.378;6.736;2023-09-30T05:50:23;9.80;;;3.72;;
59998;SDS011;45859;51.378;6.736;2023-09-30T05:52:51;9.70;;;4.03;;
59998;SDS011;45859;51.378;6.736;2023-09-30T05:55:17;20.07;;;5.50;;
59998;SDS011;45859;51.378;6.736;2023-09-30T05:57:45;10.27;;;3.43;;
59998;SDS011;45859;51.378;6.736;2023-09-30T06:00:12;12.37;;;4.03;;
59998;SDS011;45859;51.378;6.736;2023-09-30T06:02:46;12.40;;;4.73;;
59998;SDS011;45859;51.378;6.736;2023-09-30T06:05:12;10.43;;;4.97;;
59998;SDS011;45859;51.378;6.736;2023-09-30T06:07:40;11.57;;;4.63;;
59998;SDS011;45859;51.378;6.736;2023-09-30T06:10:10;12.00;;;4.90;;
59998;SDS011;45859;51.378;6.736;2023-09-30T06:12:36;14.23;;;4.10;;
59998;SDS011;45859;51.378;6.736;2023-09-30T06:15:02;17.37;;;4.67;;
59998;SDS011;45859;51.378;6.736;2023-09-30T06:17:28;11.07;;;4.67;;
59998;SDS011;45859;51.378;6.736;2023-09-30T06:19:54;11.63;;;4.60;;
59998;SDS011;45859;51.378;6.736;2023-09-30T06:22:20;25.47;;;13.87;;
59998;SDS011;45859;51.378;6.736;2023-09-30T06:24:46;27.93;;;14.20;;
59998;SDS011;45859;51.378;6.736;2023-09-30T06:27:13;19.40;;;5.30;;
59998;SDS011;45859;51.378;6.736;2023-09-30T06:29:39;15.53;;;5.20;;
59998;SDS011;45859;51.378;6.736;2023-09-30T06:32:07;9.80;;;3.63;;
59998;SDS011;45859;51.378;6.736;2023-09-30T06:34:33;11.03;;;4.67;;
59998;SDS011;45859;51.378;6.736;2023-09-30T06:37:00;7.17;;;4.47;;
59998;SDS011;45859;51.378;6.736;2023-09-30T06:39:27;11.93;;;5.47;;
59998;SDS011;45859;51.378;6.736;2023-09-30T06:41:54;9.50;;;3.97;;
59998;SDS011;45859;51.378;6.736;2023-09-30T06:44:20;16.40;;;5.77;;
59998;SDS011;45859;51.378;6.736;2023-09-30T06:46:49;23.60;;;14.53;;
59998;SDS011;45859;51.378;6.736;2023-09-30T06:49:15;24.03;;;14.53;;
59998;SDS011;45859;51.378;6.736;2023-09-30T06:51:41;29.83;;;15.60;;
59998;SDS011;45859;51.378;6.736;2023-09-30T06:54:08;10.93;;;3.87;;
59998;SDS011;45859;51.378;6.736;2023-09-30T06:56:34;26.50;;;14.97;;
59998;SDS011;45859;51.378;6.736;2023-09-30T06:59:00;25.73;;;15.17;;
59998;SDS011;45859;51.378;6.736;2023-09-30T07:01:26;23.77;;;14.03;;
59998;SDS011;45859;51.378;6.736;2023-09-30T07:03:52;22.30;;;13.27;;
59998;SDS011;45859;51.378;6.736;2023-09-30T07:06:22;21.97;;;12.60;;
59998;SDS011;45859;51.378;6.736;2023-09-30T07:08:49;22.35;;;12.02;;
59998;SDS011;45859;51.378;6.736;2023-09-30T07:11:15;16.97;;;11.20;;
59998;SDS011;45859;51.378;6.736;2023-09-30T07:13:41;17.00;;;10.67;;
59998;SDS011;45859;51.378;6.736;2023-09-30T07:16:06;14.83;;;9.80;;
59998;SDS011;45859;51.378;6.736;2023-09-30T07:18:32;18.03;;;10.27;;
59998;SDS011;45859;51.378;6.736;2023-09-30T07:20:58;18.00;;;10.33;;
59998;SDS011;45859;51.378;6.736;2023-09-30T07:23:24;19.07;;;11.00;;
59998;SDS011;45859;51.378;6.736;2023-09-30T07:25:50;19.77;;;11.20;;
59998;SDS011;45859;51.378;6.736;2023-09-30T07:28:16;19.00;;;11.10;;
59998;SDS011;45859;51.378;6.736;2023-09-30T07:30:43;18.77;;;11.47;;
59998;SDS011;45859;51.378;6.736;2023-09-30T07:33:09;19.83;;;12.10;;
59998;SDS011;45859;51.378;6.736;2023-09-30T07:35:36;18.87;;;11.83;;
59998;SDS011;45859;51.378;6.736;2023-09-30T07:38:04;20.93;;;12.07;;
59998;SDS011;45859;51.378;6.736;2023-09-30T07:40:30;20.43;;;11.77;;
59998;SDS011;45859;51.378;6.736;2023-09-30T07:42:56;22.40;;;13.63;;
59998;SDS011;45859;51.378;6.736;2023-09-30T07:45:22;23.77;;;13.93;;
59998;SDS011;45859;51.378;6.736;2023-09-30T07:47:48;22.15;;;13.63;;
59998;SDS011;45859;51.378;6.736;2023-09-30T07:50:14;17.48;;;12.43;;
59998;SDS011;45859;51.378;6.736;2023-09-30T07:52:40;20.88;;;12.70;;
59998;SDS011;45859;51.378;6.736;2023-09-30T07:55:07;16.70;;;11.25;;
59998;SDS011;45859;51.378;6.736;2023-09-30T07:57:34;15.60;;;11.18;;
59998;SDS011;45859;51.378;6.736;2023-09-30T08:00:00;16.38;;;11.55;;
59998;SDS011;45859;51.378;6.736;2023-09-30T08:02:28;17.55;;;10.63;;
59998;SDS011;45859;51.378;6.736;2023-09-30T08:04:58;18.50;;;10.73;;
59998;SDS011;45859;51.378;6.736;2023-09-30T08:07:27;16.52;;;10.68;;
59998;SDS011;45859;51.378;6.736;2023-09-30T08:09:53;16.60;;;10.50;;
59998;SDS011;45859;51.378;6.736;2023-09-30T08:12:19;17.15;;;10.73;;
59998;SDS011;45859;51.378;6.736;2023-09-30T08:14:46;15.85;;;10.60;;
59998;SDS011;45859;51.378;6.736;2023-09-30T08:17:12;13.20;;;10.13;;
59998;SDS011;45859;51.378;6.736;2023-09-30T08:19:38;16.38;;;10.77;;
59998;SDS011;45859;51.378;6.736;2023-09-30T08:22:04;16.30;;;10.50;;
59998;SDS011;45859;51.378;6.736;2023-09-30T08:24:31;15.80;;;10.45;;
59998;SDS011;45859;51.378;6.736;2023-09-30T08:26:57;18.17;;;10.95;;
59998;SDS011;45859;51.378;6.736;2023-09-30T08:29:23;13.75;;;10.73;;
59998;SDS011;45859;51.378;6.736;2023-09-30T08:31:49;15.75;;;10.60;;
59998;SDS011;45859;51.378;6.736;2023-09-30T08:34:17;13.95;;;11.00;;
59998;SDS011;45859;51.378;6.736;2023-09-30T08:36:46;14.98;;;10.57;;
59998;SDS011;45859;51.378;6.736;2023-09-30T08:39:12;18.50;;;11.57;;
59998;SDS011;45859;51.378;6.736;2023-09-30T08:41:39;14.00;;;10.68;;
59998;SDS011;45859;51.378;6.736;2023-09-30T08:44:05;14.98;;;10.88;;
59998;SDS011;45859;51.378;6.736;2023-09-30T08:46:32;15.52;;;10.68;;
59998;SDS011;45859;51.378;6.736;2023-09-30T08:48:59;14.82;;;10.57;;
59998;SDS011;45859;51.378;6.736;2023-09-30T08:51:28;14.45;;;10.13;;
59998;SDS011;45859;51.378;6.736;2023-09-30T08:53:54;13.35;;;9.95;;
59998;SDS011;45859;51.378;6.736;2023-09-30T08:56:22;15.07;;;9.38;;
59998;SDS011;45859;51.378;6.736;2023-09-30T08:58:52;16.15;;;10.45;;
59998;SDS011;45859;51.378;6.736;2023-09-30T09:01:18;15.13;;;9.95;;
59998;SDS011;45859;51.378;6.736;2023-09-30T09:03:44;13.75;;;10.48;;
59998;SDS011;45859;51.378;6.736;2023-09-30T09:06:17;14.45;;;10.73;;
59998;SDS011;45859;51.378;6.736;2023-09-30T09:08:43;15.15;;;10.45;;
59998;SDS011;45859;51.378;6.736;2023-09-30T09:11:09;13.27;;;9.32;;
59998;SDS011;45859;51.378;6.736;2023-09-30T09:13:45;14.38;;;9.38;;
59998;SDS011;45859;51.378;6.736;2023-09-30T09:16:14;14.75;;;10.05;;
59998;SDS011;45859;51.378;6.736;2023-09-30T09:18:40;15.48;;;10.70;;
59998;SDS011;45859;51.378;6.736;2023-09-30T09:21:07;17.63;;;11.00;;
59998;SDS011;45859;51.378;6.736;2023-09-30T09:23:38;14.10;;;10.25;;
59998;SDS011;45859;51.378;6.736;2023-09-30T09:26:32;15.32;;;10.48;;
59998;SDS011;45859;51.378;6.736;2023-09-30T09:29:00;15.32;;;11.35;;
59998;SDS011;45859;51.378;6.736;2023-09-30T09:31:27;14.95;;;11.05;;
59998;SDS011;45859;51.378;6.736;2023-09-30T09:33:53;13.90;;;9.75;;
59998;SDS011;45859;51.378;6.736;2023-09-30T09:36:20;15.30;;;9.80;;
59998;SDS011;45859;51.378;6.736;2023-09-30T09:38:48;13.57;;;9.32;;
59998;SDS011;45859;51.378;6.736;2023-09-30T09:41:15;10.73;;;7.45;;
59998;SDS011;45859;51.378;6.736;2023-09-30T09:43:41;14.07;;;6.95;;
59998;SDS011;45859;51.378;6.736;2023-09-30T09:46:08;11.43;;;7.60;;
59998;SDS011;45859;51.378;6.736;2023-09-30T09:48:37;14.05;;;7.50;;
59998;SDS011;45859;51.378;6.736;2023-09-30T09:51:04;8.32;;;5.97;;
59998;SDS011;45859;51.378;6.736;2023-09-30T09:53:33;10.05;;;7.57;;
59998;SDS011;45859;51.378;6.736;2023-09-30T09:56:01;13.68;;;8.65;;
59998;SDS011;45859;51.378;6.736;2023-09-30T09:58:28;12.77;;;7.80;;
59998;SDS011;45859;51.378;6.736;2023-09-30T10:00:59;10.70;;;6.22;;
59998;SDS011;45859;51.378;6.736;2023-09-30T10:03:26;11.68;;;6.72;;
59998;SDS011;45859;51.378;6.736;2023-09-30T10:05:52;11.30;;;6.38;;
59998;SDS011;45859;51.378;6.736;2023-09-30T10:08:20;9.27;;;5.47;;
59998;SDS011;45859;51.378;6.736;2023-09-30T10:10:48;10.52;;;5.93;;
59998;SDS011;45859;51.378;6.736;2023-09-30T10:15:58;8.77;;;6.20;;
59998;SDS011;45859;51.378;6.736;2023-09-30T10:18:24;14.00;;;4.78;;
59998;SDS011;45859;51.378;6.736;2023-09-30T10:20:50;11.73;;;4.72;;
59998;SDS011;45859;51.378;6.736;2023-09-30T10:23:32;9.43;;;4.53;;
59998;SDS011;45859;51.378;6.736;2023-09-30T10:26:32;8.00;;;5.30;;
59998;SDS011;45859;51.378;6.736;2023-09-30T10:28:52;11.88;;;6.07;;
59998;SDS011;45859;51.378;6.736;2023-09-30T10:31:19;9.45;;;4.65;;
59998;SDS011;45859;51.378;6.736;2023-09-30T10:36:29;9.68;;;5.57;;
59998;SDS011;45859;51.378;6.736;2023-09-30T10:38:56;8.57;;;4.88;;
59998;SDS011;45859;51.378;6.736;2023-09-30T10:46:55;9.32;;;4.53;;
59998;SDS011;45859;51.378;6.736;2023-09-30T10:51:58;11.02;;;4.80;;
59998;SDS011;45859;51.378;6.736;2023-09-30T10:54:28;13.88;;;5.25;;
59998;SDS011;45859;51.378;6.736;2023-09-30T10:56:54;9.07;;;4.95;;
59998;SDS011;45859;51.378;6.736;2023-09-30T10:59:24;6.47;;;4.20;;
59998;SDS011;45859;51.378;6.736;2023-09-30T11:01:51;8.05;;;3.80;;
59998;SDS011;45859;51.378;6.736;2023-09-30T11:04:18;8.77;;;3.33;;
59998;SDS011;45859;51.378;6.736;2023-09-30T11:06:44;7.80;;;4.25;;
59998;SDS011;45859;51.378;6.736;2023-09-30T11:09:15;9.20;;;4.47;;
59998;SDS011;45859;51.378;6.736;2023-09-30T11:14:24;9.02;;;4.25;;
59998;SDS011;45859;51.378;6.736;2023-09-30T11:16:51;8.45;;;4.78;;
59998;SDS011;45859;51.378;6.736;2023-09-30T11:19:18;7.22;;;4.53;;
59998;SDS011;45859;51.378;6.736;2023-09-30T11:21:48;8.95;;;4.68;;
59998;SDS011;45859;51.378;6.736;2023-09-30T11:24:14;7.75;;;4.00;;
59998;SDS011;45859;51.378;6.736;2023-09-30T11:26:41;6.32;;;3.67;;
59998;SDS011;45859;51.378;6.736;2023-09-30T11:29:08;7.53;;;3.60;;
59998;SDS011;45859;51.378;6.736;2023-09-30T11:31:42;6.53;;;3.13;;
59998;SDS011;45859;51.378;6.736;2023-09-30T11:34:13;6.63;;;3.13;;
59998;SDS011;45859;51.378;6.736;2023-09-30T11:36:49;5.80;;;2.90;;
59998;SDS011;45859;51.378;6.736;2023-09-30T11:41:48;9.07;;;3.70;;
59998;SDS011;45859;51.378;6.736;2023-09-30T11:44:14;7.35;;;4.05;;
59998;SDS011;45859;51.378;6.736;2023-09-30T11:49:25;5.93;;;3.40;;
59998;SDS011;45859;51.378;6.736;2023-09-30T11:51:52;4.00;;;2.40;;
59998;SDS011;45859;51.378;6.736;2023-09-30T11:54:18;6.35;;;3.30;;
59998;SDS011;45859;51.378;6.736;2023-09-30T11:56:44;5.65;;;3.05;;
59998;SDS011;45859;51.378;6.736;2023-09-30T11:59:12;7.13;;;3.00;;
59998;SDS011;45859;51.378;6.736;2023-09-30T12:01:38;6.40;;;3.03;;
59998;SDS011;45859;51.378;6.736;2023-09-30T12:04:04;7.78;;;3.05;;
59998;SDS011;45859;51.378;6.736;2023-09-30T12:06:31;5.28;;;3.10;;
59998;SDS011;45859;51.378;6.736;2023-09-30T12:08:59;6.18;;;3.33;;
59998;SDS011;45859;51.378;6.736;2023-09-30T12:11:25;7.75;;;4.03;;
59998;SDS011;45859;51.378;6.736;2023-09-30T12:13:54;5.90;;;3.40;;
59998;SDS011;45859;51.378;6.736;2023-09-30T12:16:20;6.60;;;3.25;;
59998;SDS011;45859;51.378;6.736;2023-09-30T12:18:46;5.32;;;2.70;;
59998;SDS011;45859;51.378;6.736;2023-09-30T12:21:12;5.43;;;2.20;;
59998;SDS011;45859;51.378;6.736;2023-09-30T12:23:39;6.90;;;2.50;;
59998;SDS011;45859;51.378;6.736;2023-09-30T12:26:05;6.15;;;3.00;;
59998;SDS011;45859;51.378;6.736;2023-09-30T12:28:32;8.65;;;3.20;;
59998;SDS011;45859;51.378;6.736;2023-09-30T12:30:58;6.25;;;3.05;;
59998;SDS011;45859;51.378;6.736;2023-09-30T12:33:27;6.25;;;2.78;;
59998;SDS011;45859;51.378;6.736;2023-09-30T12:35:53;7.05;;;2.95;;
59998;SDS011;45859;51.378;6.736;2023-09-30T12:38:19;5.15;;;3.08;;
59998;SDS011;45859;51.378;6.736;2023-09-30T12:40:45;6.35;;;3.00;;
59998;SDS011;45859;51.378;6.736;2023-09-30T12:43:11;5.32;;;2.22;;
59998;SDS011;45859;51.378;6.736;2023-09-30T12:45:37;3.88;;;2.15;;
59998;SDS011;45859;51.378;6.736;2023-09-30T12:48:03;5.03;;;2.20;;
59998;SDS011;45859;51.378;6.736;2023-09-30T12:50:29;6.57;;;2.50;;
59998;SDS011;45859;51.378;6.736;2023-09-30T12:52:55;8.02;;;2.72;;
59998;SDS011;45859;51.378;6.736;2023-09-30T12:55:21;5.70;;;2.85;;
59998;SDS011;45859;51.378;6.736;2023-09-30T12:57:47;6.40;;;2.88;;
59998;SDS011;45859;51.378;6.736;2023-09-30T13:00:15;6.90;;;2.80;;
59998;SDS011;45859;51.378;6.736;2023-09-30T13:02:41;6.55;;;3.13;;
59998;SDS011;45859;51.378;6.736;2023-09-30T13:05:08;7.13;;;3.08;;
59998;SDS011;45859;51.378;6.736;2023-09-30T13:07:34;8.05;;;3.83;;
59998;SDS011;45859;51.378;6.736;2023-09-30T13:10:00;7.25;;;3.80;;
59998;SDS011;45859;51.378;6.736;2023-09-30T13:12:26;6.15;;;3.20;;
59998;SDS011;45859;51.378;6.736;2023-09-30T13:14:53;6.80;;;3.30;;
59998;SDS011;45859;51.378;6.736;2023-09-30T13:17:21;7.22;;;3.30;;
59998;SDS011;45859;51.378;6.736;2023-09-30T13:19:47;6.57;;;3.38;;
59998;SDS011;45859;51.378;6.736;2023-09-30T13:22:13;6.60;;;3.58;;
59998;SDS011;45859;51.378;6.736;2023-09-30T13:24:41;6.70;;;3.13;;
59998;SDS011;45859;51.378;6.736;2023-09-30T13:27:07;5.95;;;3.15;;
59998;SDS011;45859;51.378;6.736;2023-09-30T13:29:33;5.15;;;2.80;;
59998;SDS011;45859;51.378;6.736;2023-09-30T13:32:00;5.97;;;3.03;;
59998;SDS011;45859;51.378;6.736;2023-09-30T13:34:26;7.03;;;3.92;;
59998;SDS011;45859;51.378;6.736;2023-09-30T13:36:52;8.88;;;3.80;;
59998;SDS011;45859;51.378;6.736;2023-09-30T13:39:18;6.35;;;3.42;;
59998;SDS011;45859;51.378;6.736;2023-09-30T13:41:44;10.50;;;3.63;;
59998;SDS011;45859;51.378;6.736;2023-09-30T13:44:12;5.68;;;3.08;;
59998;SDS011;45859;51.378;6.736;2023-09-30T13:46:38;5.82;;;3.72;;
59998;SDS011;45859;51.378;6.736;2023-09-30T13:49:04;6.25;;;3.38;;
59998;SDS011;45859;51.378;6.736;2023-09-30T13:51:29;6.57;;;3.33;;
59998;SDS011;45859;51.378;6.736;2023-09-30T13:53:55;5.50;;;2.95;;
59998;SDS011;45859;51.378;6.736;2023-09-30T13:56:21;6.47;;;3.22;;
59998;SDS011;45859;51.378;6.736;2023-09-30T13:58:47;5.30;;;3.20;;
59998;SDS011;45859;51.378;6.736;2023-09-30T14:01:14;6.18;;;3.88;;
59998;SDS011;45859;51.378;6.736;2023-09-30T14:03:40;5.75;;;3.72;;
59998;SDS011;45859;51.378;6.736;2023-09-30T14:06:10;5.78;;;2.83;;
59998;SDS011;45859;51.378;6.736;2023-09-30T14:08:37;5.25;;;3.05;;
59998;SDS011;45859;51.378;6.736;2023-09-30T14:11:03;4.90;;;2.72;;
59998;SDS011;45859;51.378;6.736;2023-09-30T14:13:29;7.25;;;3.10;;
59998;SDS011;45859;51.378;6.736;2023-09-30T14:15:55;5.78;;;2.95;;
59998;SDS011;45859;51.378;6.736;2023-09-30T14:18:21;6.75;;;3.58;;
59998;SDS011;45859;51.378;6.736;2023-09-30T14:20:47;5.60;;;2.92;;
59998;SDS011;45859;51.378;6.736;2023-09-30T14:23:13;5.50;;;3.33;;
59998;SDS011;45859;51.378;6.736;2023-09-30T14:25:39;8.18;;;4.05;;
59998;SDS011;45859;51.378;6.736;2023-09-30T14:28:06;8.68;;;4.20;;
59998;SDS011;45859;51.378;6.736;2023-09-30T14:30:32;5.65;;;3.67;;
59998;SDS011;45859;51.378;6.736;2023-09-30T14:32:58;6.03;;;3.40;;
59998;SDS011;45859;51.378;6.736;2023-09-30T14:35:24;5.68;;;3.92;;
59998;SDS011;45859;51.378;6.736;2023-09-30T14:37:50;4.90;;;3.38;;
59998;SDS011;45859;51.378;6.736;2023-09-30T14:40:19;8.73;;;3.70;;
59998;SDS011;45859;51.378;6.736;2023-09-30T14:42:45;4.60;;;3.22;;
59998;SDS011;45859;51.378;6.736;2023-09-30T14:45:11;6.28;;;4.20;;
59998;SDS011;45859;51.378;6.736;2023-09-30T14:47:37;6.47;;;3.22;;
59998;SDS011;45859;51.378;6.736;2023-09-30T14:50:05;5.75;;;3.10;;
59998;SDS011;45859;51.378;6.736;2023-09-30T14:52:32;5.57;;;3.40;;
59998;SDS011;45859;51.378;6.736;2023-09-30T14:54:58;5.07;;;3.53;;